Time;durP1;ratioP1;P1;durP2;ratioP2;P2;SDS_P1;SDS_P2;PMS_P1;PMS_P2;Temp;Humidity;BMP_temperature;BMP_pressure;BME280_temperature;BME280_humidity;BME280_pressure;Samples;Min_cycle;Max_cycle;Signal;HPM_P1;HPM_P2
2023/07/07 00:02:19;;;;;;;18.43;17.73;;;23.10;66.30;;;;;;5033749;28;20920;-50
2023/07/07 00:04:46;;;;;;;19.30;18.60;;;23.10;66.30;;;;;;5033849;28;21007;-50
2023/07/07 00:07:14;;;;;;;18.80;18.00;;;23.10;66.60;;;;;;5033232;28;20924;-52
2023/07/07 00:09:41;;;;;;;19.67;18.93;;;23.10;66.70;;;;;;5033324;28;20480;-50
2023/07/07 00:12:10;;;;;;;19.10;18.30;;;23.10;66.90;;;;;;5033362;28;20481;-50
2023/07/07 00:14:37;;;;;;;19.33;18.63;;;23.10;67.10;;;;;;5033399;28;20445;-50
2023/07/07 00:17:04;;;;;;;18.37;17.67;;;23.10;67.20;;;;;;5032897;28;21011;-50
2023/07/07 00:19:32;;;;;;;20.37;19.67;;;23.10;67.20;;;;;;5033273;28;20544;-50
2023/07/07 00:22:00;;;;;;;19.53;18.73;;;23.00;67.10;;;;;;5033198;28;20481;-50
2023/07/07 00:24:27;;;;;;;19.93;19.10;;;23.00;67.50;;;;;;5033304;28;20848;-51
2023/07/07 00:26:54;;;;;;;19.50;18.80;;;23.00;67.20;;;;;;5032674;28;20484;-50
2023/07/07 00:29:22;;;;;;;19.40;18.70;;;23.00;67.30;;;;;;5033110;28;20548;-50
2023/07/07 00:31:49;;;;;;;19.60;18.80;;;23.00;67.40;;;;;;5033093;28;20808;-52
2023/07/07 00:34:16;;;;;;;19.93;19.13;;;23.00;67.60;;;;;;5033034;28;20536;-51
2023/07/07 00:36:43;;;;;;;19.23;18.43;;;23.00;67.70;;;;;;5032659;28;20531;-50
2023/07/07 00:39:10;;;;;;;19.17;18.27;;;23.00;68.00;;;;;;5032758;28;20558;-50
2023/07/07 00:41:37;;;;;;;19.60;18.70;;;22.90;67.90;;;;;;5032796;28;20536;-49
2023/07/07 00:44:06;;;;;;;18.90;18.13;;;22.90;68.00;;;;;;5032766;28;20631;-49
2023/07/07 00:46:34;;;;;;;18.53;17.83;;;22.90;68.20;;;;;;5032324;28;20532;-49
2023/07/07 00:49:05;;;;;;;19.50;18.80;;;22.90;68.50;;;;;;5032517;28;20829;-50
2023/07/07 00:51:35;;;;;;;19.00;18.30;;;22.90;68.50;;;;;;5032611;28;20487;-49
2023/07/07 00:54:07;;;;;;;19.60;18.60;;;22.90;68.60;;;;;;5032764;28;20870;-50
2023/07/07 00:56:37;;;;;;;19.70;18.97;;;22.90;68.60;;;;;;5032154;28;20552;-50
2023/07/07 00:59:09;;;;;;;19.50;18.80;;;22.90;68.60;;;;;;5032606;28;20552;-51
2023/07/07 01:01:39;;;;;;;19.87;18.83;;;22.90;68.80;;;;;;5032941;28;20448;-51
2023/07/07 01:04:11;;;;;;;18.37;17.67;;;22.80;68.80;;;;;;5032284;28;20637;-50
2023/07/07 01:06:42;;;;;;;19.27;18.47;;;22.80;68.90;;;;;;5032367;28;20881;-50
2023/07/07 01:09:09;;;;;;;20.73;19.93;;;22.90;69.10;;;;;;5032608;28;20491;-50
2023/07/07 01:11:37;;;;;;;19.47;18.67;;;22.90;69.10;;;;;;5032142;28;20889;-48
2023/07/07 01:14:08;;;;;;;18.93;18.23;;;22.90;69.10;;;;;;5031913;28;20528;-48
2023/07/07 01:16:45;;;;;;;18.90;18.20;;;22.80;69.20;;;;;;5032033;28;20532;-49
2023/07/07 01:19:33;;;;;;;19.03;18.23;;;22.80;69.20;;;;;;5031952;28;20547;-49
2023/07/07 01:22:11;;;;;;;18.80;18.00;;;22.80;69.30;;;;;;5031915;28;20476;-49
2023/07/07 01:24:57;;;;;;;18.83;18.03;;;22.80;69.30;;;;;;5031792;28;20527;-48
2023/07/07 01:27:43;;;;;;;18.40;17.70;;;22.80;69.20;;;;;;5031750;28;20891;-48
2023/07/07 01:30:36;;;;;;;18.83;18.20;;;22.80;69.30;;;;;;5032162;28;20456;-49
2023/07/07 01:33:07;;;;;;;18.77;18.07;;;22.80;69.60;;;;;;5031931;28;20516;-48
2023/07/07 01:35:35;;;;;;;18.90;18.20;;;22.80;69.40;;;;;;5031535;28;20505;-48
2023/07/07 01:38:04;;;;;;;19.23;18.43;;;22.80;69.30;;;;;;5031643;28;20469;-48
2023/07/07 01:40:41;;;;;;;19.87;19.07;;;22.80;69.30;;;;;;5031734;28;20813;-48
2023/07/07 01:43:13;;;;;;;19.73;18.90;;;22.80;69.50;;;;;;5031787;28;20635;-48
2023/07/07 01:45:46;;;;;;;18.83;18.23;;;22.80;69.80;;;;;;5031534;28;20496;-49
2023/07/07 01:48:23;;;;;;;18.27;17.67;;;22.80;69.80;;;;;;5030817;28;20568;-48
2023/07/07 01:50:52;;;;;;;19.07;18.40;;;22.70;69.60;;;;;;5031706;28;20475;-49
2023/07/07 01:53:23;;;;;;;19.50;18.70;;;22.70;69.50;;;;;;5031496;28;20996;-48
2023/07/07 01:55:55;;;;;;;20.00;19.30;;;22.70;69.30;;;;;;5011862;28;20541;-49
2023/07/07 01:58:23;;;;;;;20.30;19.60;;;22.70;69.20;;;;;;5011768;28;20904;-48
2023/07/07 02:00:55;;;;;;;19.07;18.27;;;22.70;69.20;;;;;;5011704;28;20486;-50
2023/07/07 02:03:23;;;;;;;19.53;18.73;;;22.70;69.10;;;;;;5011752;28;21218;-48
2023/07/07 02:05:50;;;;;;;19.40;18.60;;;22.70;69.00;;;;;;5030676;28;20548;-48
2023/07/07 02:08:16;;;;;;;20.23;19.53;;;22.70;69.00;;;;;;5031086;28;20580;-49
2023/07/07 02:10:43;;;;;;;18.97;18.37;;;22.70;69.00;;;;;;5031360;28;20477;-48
2023/07/07 02:13:10;;;;;;;18.87;18.17;;;22.70;69.00;;;;;;5031126;28;20528;-48
2023/07/07 02:15:38;;;;;;;20.23;19.20;;;22.60;69.10;;;;;;5031369;28;20814;-49
2023/07/07 02:18:06;;;;;;;18.70;18.07;;;22.60;69.30;;;;;;5031166;28;20556;-48
2023/07/07 02:20:33;;;;;;;18.60;18.00;;;22.60;69.30;;;;;;5031300;28;20536;-48
2023/07/07 02:23:00;;;;;;;18.90;18.20;;;22.60;69.40;;;;;;5030957;28;20487;-48
2023/07/07 02:25:27;;;;;;;19.10;18.50;;;22.60;69.50;;;;;;5031397;28;20480;-48
2023/07/07 02:27:54;;;;;;;18.63;18.03;;;22.60;69.60;;;;;;5030912;28;20540;-48
2023/07/07 02:30:21;;;;;;;18.90;18.00;;;22.60;69.70;;;;;;5031259;28;20531;-49
2023/07/07 02:32:47;;;;;;;19.70;18.80;;;22.70;70.00;;;;;;5030927;28;21039;-48
2023/07/07 02:35:16;;;;;;;20.13;19.43;;;22.60;69.90;;;;;;5031130;28;20481;-48
2023/07/07 02:37:43;;;;;;;19.33;18.63;;;22.60;69.90;;;;;;5030786;28;20453;-49
2023/07/07 02:40:10;;;;;;;19.20;18.50;;;22.60;69.80;;;;;;5031079;28;20971;-49
2023/07/07 02:42:37;;;;;;;19.10;18.40;;;22.60;69.60;;;;;;5030823;28;20564;-49
2023/07/07 02:45:05;;;;;;;19.50;18.80;;;22.60;69.60;;;;;;5030825;28;20481;-48
2023/07/07 02:47:32;;;;;;;19.13;18.43;;;22.60;69.70;;;;;;5030775;28;20524;-48
2023/07/07 02:49:59;;;;;;;19.63;18.93;;;22.60;70.00;;;;;;5031068;28;20531;-48
2023/07/07 02:52:28;;;;;;;18.97;18.27;;;22.60;69.90;;;;;;5030793;28;20540;-49
2023/07/07 02:54:55;;;;;;;19.80;19.10;;;22.60;69.90;;;;;;5031055;28;20532;-48
2023/07/07 02:57:22;;;;;;;20.30;19.60;;;22.60;69.90;;;;;;5030963;28;20523;-48
2023/07/07 02:59:49;;;;;;;20.47;19.57;;;22.50;69.90;;;;;;5030973;28;20547;-48
2023/07/07 03:02:15;;;;;;;19.90;19.13;;;22.50;70.10;;;;;;5030697;28;20567;-48
2023/07/07 03:04:42;;;;;;;20.40;19.60;;;22.50;70.20;;;;;;5030893;28;20484;-48
2023/07/07 03:07:09;;;;;;;20.67;19.77;;;22.50;70.40;;;;;;5030709;28;20527;-48
2023/07/07 03:09:37;;;;;;;19.73;19.03;;;22.50;70.50;;;;;;5030657;28;20568;-49
2023/07/07 03:12:05;;;;;;;19.70;18.90;;;22.50;70.50;;;;;;5030559;28;20477;-48
2023/07/07 03:14:32;;;;;;;19.70;18.90;;;22.50;70.40;;;;;;5030513;28;20460;-50
2023/07/07 03:16:59;;;;;;;19.50;18.77;;;22.50;70.20;;;;;;5030596;28;20544;-49
2023/07/07 03:19:26;;;;;;;19.37;18.67;;;22.50;70.20;;;;;;5034167;28;20559;-48
2023/07/07 03:21:55;;;;;;;20.03;19.23;;;22.50;70.20;;;;;;5034317;28;20536;-49
2023/07/07 03:24:22;;;;;;;19.60;18.90;;;22.50;70.20;;;;;;5033905;28;20507;-49
2023/07/07 03:26:50;;;;;;;20.70;19.90;;;22.50;70.20;;;;;;5034049;28;20476;-48
2023/07/07 03:29:17;;;;;;;19.57;18.87;;;22.50;70.10;;;;;;5034126;28;20544;-49
2023/07/07 03:31:44;;;;;;;20.23;19.53;;;22.50;70.10;;;;;;5034131;28;20540;-49
2023/07/07 03:34:11;;;;;;;20.40;19.50;;;22.40;70.10;;;;;;5033778;28;20532;-52
2023/07/07 03:36:39;;;;;;;19.73;19.03;;;22.40;70.80;;;;;;5034138;28;20528;-50
2023/07/07 03:39:07;;;;;;;19.10;18.33;;;22.40;71.00;;;;;;5033809;28;20552;-48
2023/07/07 03:41:34;;;;;;;19.90;18.90;;;22.30;70.90;;;;;;5033858;28;20457;-49
2023/07/07 03:44:03;;;;;;;21.40;20.60;;;22.30;71.10;;;;;;5033544;28;20580;-48
2023/07/07 03:46:30;;;;;;;19.17;18.47;;;22.30;71.30;;;;;;5033921;28;20568;-49
2023/07/07 03:48:59;;;;;;;20.20;19.40;;;22.20;71.30;;;;;;5033670;28;20469;-49
2023/07/07 03:51:28;;;;;;;21.10;20.10;;;22.20;71.50;;;;;;5033604;28;20457;-48
2023/07/07 03:53:55;;;;;;;20.33;19.43;;;22.20;71.60;;;;;;5033354;28;20492;-50
2023/07/07 03:56:22;;;;;;;21.60;20.60;;;22.20;71.90;;;;;;5033396;28;20528;-50
2023/07/07 03:58:49;;;;;;;20.80;19.90;;;22.20;71.90;;;;;;5033531;28;20552;-49
2023/07/07 04:01:19;;;;;;;21.27;20.47;;;22.20;71.90;;;;;;5033254;28;20535;-48
2023/07/07 04:03:47;;;;;;;21.67;20.87;;;22.10;72.00;;;;;;5032854;28;20567;-49
2023/07/07 04:06:14;;;;;;;24.50;23.17;;;22.10;72.60;;;;;;5028075;28;20453;-48
2023/07/07 04:08:41;;;;;;;22.73;21.60;;;22.10;75.00;;;;;;5033348;28;20559;-48
2023/07/07 04:11:10;;;;;;;24.97;23.43;;;22.10;76.60;;;;;;5033286;28;20484;-51
2023/07/07 04:13:38;;;;;;;23.03;21.43;;;22.10;77.00;;;;;;5033282;28;21012;-49
2023/07/07 04:16:08;;;;;;;24.60;22.87;;;22.10;82.40;;;;;;5033196;28;20477;-48
2023/07/07 04:18:36;;;;;;;23.00;21.80;;;22.10;84.70;;;;;;5033047;28;20553;-49
2023/07/07 04:21:06;;;;;;;22.47;21.40;;;22.10;83.80;;;;;;5032982;28;20516;-49
2023/07/07 04:23:33;;;;;;;22.33;21.30;;;22.10;82.60;;;;;;5032911;28;20486;-49
2023/07/07 04:26:00;;;;;;;23.40;22.40;;;22.10;81.90;;;;;;5032247;28;20552;-51
2023/07/07 04:28:28;;;;;;;23.20;22.00;;;22.00;81.20;;;;;;5032504;28;20500;-51
2023/07/07 04:30:56;;;;;;;22.10;21.20;;;22.00;80.40;;;;;;5033011;28;20449;-54
2023/07/07 04:33:24;;;;;;;22.80;21.70;;;22.10;80.00;;;;;;5033042;28;20441;-51
2023/07/07 04:35:54;;;;;;;22.87;21.77;;;22.10;79.00;;;;;;5033154;28;20452;-50
2023/07/07 04:38:22;;;;;;;22.03;21.20;;;22.20;78.50;;;;;;5032643;28;20465;-50
2023/07/07 04:40:49;;;;;;;22.70;21.80;;;22.20;77.80;;;;;;5032913;28;20457;-51
2023/07/07 04:43:15;;;;;;;22.37;21.47;;;22.20;77.30;;;;;;5032749;28;20513;-50
2023/07/07 04:45:45;;;;;;;22.77;21.80;;;22.20;76.90;;;;;;5032917;28;20453;-53
2023/07/07 04:48:12;;;;;;;22.60;21.53;;;22.20;76.70;;;;;;5032450;28;20581;-50
2023/07/07 04:50:38;;;;;;;22.57;21.67;;;22.20;76.40;;;;;;5032585;28;20533;-49
2023/07/07 04:53:07;;;;;;;22.50;21.60;;;22.20;76.20;;;;;;5032798;28;20541;-50
2023/07/07 04:55:39;;;;;;;22.53;21.53;;;22.20;75.90;;;;;;5032633;28;20535;-50
2023/07/07 04:58:06;;;;;;;22.60;21.63;;;22.20;75.80;;;;;;5032415;28;20568;-50
2023/07/07 05:00:33;;;;;;;21.77;20.67;;;22.20;75.60;;;;;;5032341;28;20451;-52
2023/07/07 05:03:00;;;;;;;22.10;21.20;;;22.20;75.50;;;;;;5032455;28;20484;-49
2023/07/07 05:05:27;;;;;;;22.57;21.67;;;22.20;75.20;;;;;;5032446;28;20810;-50
2023/07/07 05:07:53;;;;;;;21.37;20.57;;;22.20;75.10;;;;;;5032058;28;20567;-50
2023/07/07 05:10:22;;;;;;;21.07;20.27;;;22.20;74.90;;;;;;5032277;28;20506;-50
2023/07/07 05:12:49;;;;;;;21.60;20.80;;;22.20;74.60;;;;;;5032221;28;20445;-50
2023/07/07 05:15:16;;;;;;;22.50;21.50;;;22.20;74.50;;;;;;5032231;28;20475;-50
2023/07/07 05:17:42;;;;;;;22.83;21.80;;;22.20;74.30;;;;;;5031803;28;20531;-50
2023/07/07 05:20:10;;;;;;;22.23;21.33;;;22.20;74.30;;;;;;5032052;28;20482;-53
2023/07/07 05:22:37;;;;;;;22.10;21.27;;;22.30;74.30;;;;;;5032052;28;20537;-50
2023/07/07 05:25:05;;;;;;;22.80;21.90;;;22.30;74.10;;;;;;5031854;28;20564;-50
2023/07/07 05:27:33;;;;;;;23.30;22.20;;;22.30;73.90;;;;;;5031632;28;20528;-52
2023/07/07 05:30:00;;;;;;;22.23;21.33;;;22.30;73.80;;;;;;5032018;28;20487;-52
2023/07/07 05:32:26;;;;;;;22.23;21.33;;;22.30;73.70;;;;;;5032233;28;20531;-50
2023/07/07 05:34:53;;;;;;;22.07;21.20;;;22.30;73.50;;;;;;5031825;28;20528;-50
2023/07/07 05:37:20;;;;;;;21.53;20.73;;;22.30;73.50;;;;;;5031579;28;20531;-50
2023/07/07 05:39:48;;;;;;;21.40;20.60;;;22.30;73.30;;;;;;5031190;28;20548;-50
2023/07/07 05:42:15;;;;;;;21.17;20.47;;;22.30;73.20;;;;;;5031495;28;20992;-49
2023/07/07 05:44:43;;;;;;;22.00;21.20;;;22.30;73.10;;;;;;5031679;28;21099;-52
2023/07/07 05:47:10;;;;;;;22.00;21.00;;;22.30;73.00;;;;;;5031595;28;20524;-51
2023/07/07 05:49:37;;;;;;;21.83;20.93;;;22.30;72.90;;;;;;5031502;28;20468;-50
2023/07/07 05:52:05;;;;;;;21.40;20.60;;;22.30;72.90;;;;;;5031684;28;20533;-50
2023/07/07 05:54:33;;;;;;;21.20;20.40;;;22.30;72.90;;;;;;5031602;28;20717;-50
2023/07/07 05:57:00;;;;;;;21.67;20.77;;;22.30;72.70;;;;;;5031338;28;20532;-50
2023/07/07 05:59:27;;;;;;;22.37;21.00;;;22.30;72.60;;;;;;5031440;28;20469;-51
2023/07/07 06:01:55;;;;;;;21.70;20.90;;;22.30;72.60;;;;;;5031466;28;20519;-49
2023/07/07 06:04:22;;;;;;;22.30;21.50;;;22.30;72.50;;;;;;5031346;28;20571;-49
2023/07/07 06:06:48;;;;;;;21.30;20.50;;;22.30;72.40;;;;;;5031281;28;20491;-52
2023/07/07 06:09:15;;;;;;;21.90;20.83;;;22.30;72.30;;;;;;5031169;28;20560;-50
2023/07/07 06:11:42;;;;;;;22.07;21.20;;;22.30;72.20;;;;;;5031509;28;20528;-49
2023/07/07 06:14:09;;;;;;;22.30;21.50;;;22.30;72.20;;;;;;5031425;28;20483;-52
2023/07/07 06:16:36;;;;;;;21.57;20.70;;;22.30;71.90;;;;;;5031192;28;20476;-54
2023/07/07 06:19:04;;;;;;;21.73;20.93;;;22.30;71.80;;;;;;5031289;28;20501;-54
2023/07/07 06:21:31;;;;;;;21.80;20.90;;;22.30;71.70;;;;;;5031297;28;20480;-53
2023/07/07 06:23:58;;;;;;;21.90;21.13;;;22.30;71.60;;;;;;5031267;28;20522;-50
2023/07/07 06:26:25;;;;;;;22.80;21.90;;;22.30;71.50;;;;;;5031340;28;20538;-50
2023/07/07 06:28:52;;;;;;;23.27;22.23;;;22.30;71.40;;;;;;5031193;28;20492;-50
2023/07/07 06:31:19;;;;;;;22.00;21.20;;;22.30;71.40;;;;;;5031305;28;20449;-50
2023/07/07 06:33:45;;;;;;;22.57;21.67;;;22.30;71.40;;;;;;5031298;28;20433;-50
2023/07/07 06:36:14;;;;;;;22.27;21.57;;;22.30;71.40;;;;;;5030947;28;20521;-50
2023/07/07 06:38:41;;;;;;;22.20;21.30;;;22.30;71.40;;;;;;5031220;28;20461;-49
2023/07/07 06:41:11;;;;;;;24.73;23.63;;;22.30;71.30;;;;;;5031195;28;20473;-53
2023/07/07 06:43:37;;;;;;;21.80;21.00;;;22.30;71.30;;;;;;5031393;28;20524;-54
2023/07/07 06:46:04;;;;;;;22.30;21.50;;;22.30;71.30;;;;;;5031080;28;20528;-50
2023/07/07 06:48:31;;;;;;;23.37;22.37;;;22.30;71.20;;;;;;5030971;28;20468;-50
2023/07/07 06:50:58;;;;;;;21.87;21.17;;;22.30;71.30;;;;;;5030979;28;20533;-50
2023/07/07 06:53:26;;;;;;;22.97;22.03;;;22.30;71.30;;;;;;5034720;28;20491;-50
2023/07/07 06:55:53;;;;;;;22.93;22.13;;;22.30;71.40;;;;;;5035034;28;20952;-50
2023/07/07 06:58:21;;;;;;;24.23;23.33;;;22.30;71.40;;;;;;5034550;28;20493;-50
2023/07/07 07:00:48;;;;;;;22.53;21.73;;;22.30;71.50;;;;;;5034707;28;20445;-50
2023/07/07 07:03:15;;;;;;;22.40;21.60;;;22.40;71.50;;;;;;5034611;28;20531;-50
2023/07/07 07:05:42;;;;;;;22.10;21.30;;;22.30;71.40;;;;;;5034467;28;20567;-51
2023/07/07 07:08:09;;;;;;;22.40;21.50;;;22.40;71.40;;;;;;5059629;23;20502;-62
2023/07/07 07:10:37;;;;;;;22.30;21.33;;;22.40;71.40;;;;;;5026184;28;20548;-55
2023/07/07 07:13:04;;;;;;;23.00;22.10;;;22.40;71.30;;;;;;5034681;28;20474;-58
2023/07/07 07:15:31;;;;;;;21.37;20.63;;;22.40;71.10;;;;;;5034352;28;20943;-62
2023/07/07 07:17:58;;;;;;;22.30;21.50;;;22.40;70.90;;;;;;5033953;28;20448;-62
2023/07/07 07:20:25;;;;;;;21.70;20.90;;;22.40;70.90;;;;;;5034270;28;20528;-61
2023/07/07 07:22:52;;;;;;;21.80;21.00;;;22.40;70.80;;;;;;5034141;28;20872;-60
2023/07/07 07:25:18;;;;;;;22.30;21.50;;;22.40;70.80;;;;;;5034235;28;20523;-62
2023/07/07 07:27:47;;;;;;;23.43;22.63;;;22.40;70.80;;;;;;5034025;28;20487;-61
2023/07/07 07:30:15;;;;;;;22.27;21.47;;;22.40;70.80;;;;;;5034158;28;21008;-61
2023/07/07 07:32:42;;;;;;;22.20;21.40;;;22.40;70.90;;;;;;5033993;28;20453;-61
2023/07/07 07:35:11;;;;;;;21.83;21.03;;;22.40;70.70;;;;;;5034085;28;20998;-61
2023/07/07 07:37:38;;;;;;;21.13;20.43;;;22.40;70.60;;;;;;5033807;28;20537;-61
2023/07/07 07:40:06;;;;;;;21.47;20.77;;;22.40;70.50;;;;;;5033827;28;20499;-61
2023/07/07 07:42:33;;;;;;;21.80;21.00;;;22.40;70.50;;;;;;5033967;28;20528;-62
2023/07/07 07:45:01;;;;;;;23.00;22.20;;;22.40;70.50;;;;;;5033921;28;20576;-54
2023/07/07 07:47:28;;;;;;;22.57;21.77;;;22.40;70.40;;;;;;5033797;28;20483;-53
2023/07/07 07:49:55;;;;;;;22.80;22.00;;;22.40;70.30;;;;;;5033822;28;20497;-54
2023/07/07 07:52:22;;;;;;;22.57;21.77;;;22.40;70.20;;;;;;5033846;28;20524;-56
2023/07/07 07:54:49;;;;;;;22.50;21.70;;;22.40;70.10;;;;;;5033931;28;20445;-52
2023/07/07 07:57:17;;;;;;;23.03;22.10;;;22.40;70.00;;;;;;5033426;28;20444;-57
2023/07/07 07:59:44;;;;;;;23.50;22.60;;;22.40;69.90;;;;;;5033526;28;20531;-57
2023/07/07 08:02:13;;;;;;;22.77;21.97;;;22.40;69.90;;;;;;5033797;28;20473;-54
2023/07/07 08:04:39;;;;;;;22.13;21.40;;;22.40;69.80;;;;;;5033144;28;20488;-54
2023/07/07 08:07:06;;;;;;;22.00;21.20;;;22.40;69.80;;;;;;5033417;28;20537;-61
2023/07/07 08:09:33;;;;;;;22.00;21.20;;;22.40;69.80;;;;;;5033177;28;20512;-61
2023/07/07 08:12:03;;;;;;;22.00;21.20;;;22.50;69.70;;;;;;5033272;28;20527;-61
2023/07/07 08:14:32;;;;;;;23.23;22.43;;;22.40;69.70;;;;;;5033281;28;20531;-59
2023/07/07 08:17:04;;;;;;;21.97;21.20;;;22.50;70.70;;;;;;5033280;28;20952;-57
2023/07/07 08:19:35;;;;;;;23.40;22.57;;;22.50;69.80;;;;;;5033328;28;20469;-57
2023/07/07 08:22:05;;;;;;;22.43;21.63;;;22.50;69.60;;;;;;5033379;28;20624;-54
2023/07/07 08:24:35;;;;;;;23.07;22.23;;;22.50;69.60;;;;;;5033378;28;20485;-58
2023/07/07 08:27:02;;;;;;;24.60;23.60;;;22.50;70.30;;;;;;5032875;28;20577;-55
2023/07/07 08:29:29;;;;;;;21.80;21.00;;;22.50;69.60;;;;;;5032875;28;21039;-56
2023/07/07 08:31:56;;;;;;;21.97;21.27;;;22.50;69.30;;;;;;5032827;28;20544;-55
2023/07/07 08:34:23;;;;;;;22.10;21.30;;;22.50;69.20;;;;;;5032866;28;20525;-57
2023/07/07 08:36:54;;;;;;;22.93;22.07;;;22.50;69.20;;;;;;5032629;28;20445;-56
2023/07/07 08:39:22;;;;;;;22.80;21.90;;;22.50;69.80;;;;;;5032812;28;20834;-60
2023/07/07 08:41:52;;;;;;;22.90;22.20;;;22.50;69.00;;;;;;5032819;28;20473;-60
2023/07/07 08:44:23;;;;;;;23.70;22.90;;;22.50;69.10;;;;;;5032628;28;20463;-57
2023/07/07 08:47:10;;;;;;;23.07;22.27;;;22.50;68.80;;;;;;5032702;28;20528;-55
2023/07/07 08:49:47;;;;;;;23.07;22.17;;;22.50;68.80;;;;;;5032545;28;20878;-58
2023/07/07 08:52:25;;;;;;;23.20;22.40;;;22.50;68.80;;;;;;5032853;28;20531;-53
2023/07/07 08:54:59;;;;;;;22.87;22.10;;;22.50;68.60;;;;;;5032455;28;20540;-58
2023/07/07 08:57:31;;;;;;;22.60;21.80;;;22.50;68.60;;;;;;5032267;28;20991;-57
2023/07/07 09:00:03;;;;;;;23.40;22.60;;;22.50;68.60;;;;;;5032458;28;20871;-52
2023/07/07 09:02:55;;;;;;;22.93;22.13;;;22.50;68.50;;;;;;5032682;28;20449;-53
2023/07/07 09:05:40;;;;;;;22.73;21.93;;;22.50;68.50;;;;;;5032418;28;20574;-57
2023/07/07 09:08:20;;;;;;;22.87;22.07;;;22.50;68.50;;;;;;5032047;28;20528;-54
2023/07/07 09:10:55;;;;;;;22.83;22.03;;;22.60;68.50;;;;;;5032315;28;20536;-57
2023/07/07 09:13:27;;;;;;;23.30;22.50;;;22.60;68.60;;;;;;5032392;28;20813;-59
2023/07/07 09:16:13;;;;;;;23.80;23.00;;;22.60;68.50;;;;;;5031121;28;20924;-61
2023/07/07 09:18:45;;;;;;;22.10;21.40;;;22.60;68.50;;;;;;5031975;28;20809;-58
2023/07/07 09:21:30;;;;;;;23.80;23.00;;;22.60;68.40;;;;;;5032163;28;20539;-57
2023/07/07 09:24:03;;;;;;;22.90;22.10;;;22.60;68.40;;;;;;5032012;28;20484;-52
2023/07/07 09:26:33;;;;;;;22.50;21.70;;;22.60;68.30;;;;;;5031819;28;21038;-52
2023/07/07 09:29:02;;;;;;;22.53;21.73;;;22.60;68.30;;;;;;5031705;28;20511;-57
2023/07/07 09:31:32;;;;;;;23.03;22.20;;;22.60;68.20;;;;;;5031914;28;20485;-57
2023/07/07 09:34:03;;;;;;;22.77;21.97;;;22.60;68.20;;;;;;5031838;28;20503;-56
2023/07/07 09:36:36;;;;;;;22.57;21.77;;;22.60;67.90;;;;;;5031824;28;20771;-55
2023/07/07 09:39:21;;;;;;;22.60;21.90;;;22.60;67.90;;;;;;5031656;28;20500;-52
2023/07/07 09:42:03;;;;;;;23.47;22.57;;;22.60;67.70;;;;;;5031974;28;20535;-57
2023/07/07 09:44:43;;;;;;;23.20;22.30;;;22.60;67.70;;;;;;5031687;28;20493;-55
2023/07/07 09:47:20;;;;;;;22.80;22.00;;;22.60;67.50;;;;;;5031533;28;20871;-61
2023/07/07 09:49:51;;;;;;;22.70;21.90;;;22.70;67.60;;;;;;5031635;28;20547;-57
2023/07/07 09:52:43;;;;;;;22.40;21.60;;;22.70;67.50;;;;;;5031790;28;20813;-62
2023/07/07 09:55:21;;;;;;;22.80;22.00;;;22.70;67.30;;;;;;5031742;28;21102;-62
2023/07/07 09:57:57;;;;;;;23.47;22.60;;;22.60;67.00;;;;;;5031409;28;20453;-58
2023/07/07 10:00:26;;;;;;;23.10;22.30;;;22.70;67.10;;;;;;5031815;28;20531;-61
2023/07/07 10:02:54;;;;;;;22.63;21.83;;;22.70;67.80;;;;;;5031604;28;20536;-61
2023/07/07 10:05:26;;;;;;;24.40;23.50;;;22.70;66.70;;;;;;5031472;28;20576;-62
2023/07/07 10:07:53;;;;;;;24.07;23.27;;;22.70;66.60;;;;;;5031065;28;20735;-62
2023/07/07 10:10:22;;;;;;;23.50;22.70;;;22.70;66.50;;;;;;5031453;28;20499;-62
2023/07/07 10:12:49;;;;;;;23.17;22.37;;;22.70;66.30;;;;;;5031499;28;20975;-61
2023/07/07 10:15:51;;;;;;;23.00;22.10;;;22.70;66.10;;;;;;5031292;28;20525;-61
2023/07/07 10:18:23;;;;;;;22.60;21.80;;;22.70;65.80;;;;;;5026050;28;20530;-56
2023/07/07 10:20:50;;;;;;;23.43;22.53;;;22.70;65.60;;;;;;5031218;28;20576;-57
2023/07/07 10:23:17;;;;;;;24.20;23.40;;;22.70;65.50;;;;;;5031387;28;20524;-60
2023/07/07 10:25:47;;;;;;;23.87;22.93;;;22.80;65.40;;;;;;5031234;28;20567;-59
2023/07/07 10:28:17;;;;;;;24.00;23.00;;;22.80;65.40;;;;;;5034530;28;20468;-62
2023/07/07 10:30:46;;;;;;;24.70;23.73;;;22.80;65.20;;;;;;5035486;28;20540;-61
2023/07/07 10:33:15;;;;;;;23.87;22.93;;;22.80;65.80;;;;;;5035255;28;20548;-52
2023/07/07 10:35:42;;;;;;;24.07;23.27;;;22.80;65.00;;;;;;5035227;28;20527;-54
2023/07/07 10:38:11;;;;;;;23.23;22.43;;;22.70;64.70;;;;;;5034955;28;20544;-54
2023/07/07 10:40:41;;;;;;;24.10;23.30;;;22.80;64.60;;;;;;5035090;28;20889;-61
2023/07/07 10:43:12;;;;;;;23.17;22.37;;;22.80;65.20;;;;;;5035112;28;20830;-57
2023/07/07 10:45:39;;;;;;;25.17;24.07;;;22.80;64.30;;;;;;5034901;28;20591;-55
2023/07/07 10:48:12;;;;;;;23.33;22.53;;;22.80;64.40;;;;;;5034629;28;20531;-57
2023/07/07 10:50:50;;;;;;;23.50;22.50;;;22.90;64.30;;;;;;5034959;28;20802;-61
2023/07/07 10:53:35;;;;;;;23.07;22.20;;;22.90;63.90;;;;;;5034963;28;20531;-61
2023/07/07 10:56:19;;;;;;;22.03;21.23;;;22.80;62.90;;;;;;5034658;28;20516;-61
2023/07/07 10:59:11;;;;;;;24.60;23.70;;;22.90;62.60;;;;;;5034583;28;20540;-61
2023/07/07 11:01:47;;;;;;;22.30;21.50;;;22.90;62.60;;;;;;5006032;28;20987;-62
2023/07/07 11:04:49;;;;;;;21.80;21.00;;;22.80;62.20;;;;;;5034560;28;20523;-61
2023/07/07 11:07:27;;;;;;;22.50;21.70;;;22.90;62.40;;;;;;5023951;28;21063;-61
2023/07/07 11:10:08;;;;;;;22.70;21.87;;;22.90;62.40;;;;;;5034386;28;20468;-62
2023/07/07 11:12:43;;;;;;;22.90;22.10;;;22.90;62.30;;;;;;5034483;28;20870;-61
2023/07/07 11:15:22;;;;;;;23.87;22.90;;;22.90;62.30;;;;;;5034508;28;20440;-62
2023/07/07 11:18:16;;;;;;;22.90;22.10;;;22.90;62.40;;;;;;5034199;28;20464;-62
2023/07/07 11:21:01;;;;;;;23.80;22.93;;;22.90;62.20;;;;;;5034346;28;20970;-62
2023/07/07 11:23:51;;;;;;;23.20;22.30;;;22.90;62.10;;;;;;5034294;28;20520;-62
2023/07/07 11:26:30;;;;;;;22.77;21.97;;;22.90;61.90;;;;;;5033905;28;20480;-62
2023/07/07 11:29:03;;;;;;;24.37;23.47;;;23.00;62.10;;;;;;5034324;28;20896;-62
2023/07/07 11:31:48;;;;;;;23.67;22.87;;;23.00;61.90;;;;;;5034305;28;20445;-62
2023/07/07 11:34:31;;;;;;;23.53;22.60;;;23.00;62.00;;;;;;5034147;28;20990;-61
2023/07/07 11:37:08;;;;;;;23.70;22.90;;;23.00;61.60;;;;;;5033929;28;20476;-61
2023/07/07 11:39:50;;;;;;;23.33;22.53;;;23.00;61.60;;;;;;5032806;28;20493;-61
2023/07/07 11:42:36;;;;;;;24.77;23.87;;;23.00;61.50;;;;;;5033893;28;20527;-61
2023/07/07 11:45:15;;;;;;;23.83;22.83;;;23.10;61.50;;;;;;5034062;28;20579;-61
2023/07/07 11:48:01;;;;;;;24.10;23.10;;;23.00;61.20;;;;;;5033610;28;20852;-62
2023/07/07 11:50:38;;;;;;;22.57;21.70;;;23.00;60.90;;;;;;5033861;28;20536;-61
2023/07/07 11:53:25;;;;;;;22.40;21.60;;;23.10;61.30;;;;;;5033755;28;20488;-60
2023/07/07 11:56:10;;;;;;;23.40;22.50;;;23.10;61.10;;;;;;5033717;28;20537;-60
2023/07/07 11:58:45;;;;;;;23.67;22.80;;;23.10;60.10;;;;;;5033480;28;20543;-61
2023/07/07 12:01:16;;;;;;;23.10;22.20;;;23.10;59.90;;;;;;5033657;28;21047;-55
2023/07/07 12:03:52;;;;;;;24.10;23.20;;;23.10;60.00;;;;;;5033980;28;20524;-54
2023/07/07 12:06:27;;;;;;;24.20;23.30;;;23.10;60.40;;;;;;5033345;28;20848;-61
2023/07/07 12:09:05;;;;;;;23.30;22.50;;;23.10;60.10;;;;;;5033369;28;20563;-61
2023/07/07 12:11:37;;;;;;;23.80;23.00;;;23.10;60.50;;;;;;5033468;28;20976;-60
2023/07/07 12:14:23;;;;;;;23.50;22.70;;;23.10;59.60;;;;;;5033583;28;20456;-61
2023/07/07 12:16:52;;;;;;;24.83;23.93;;;23.10;59.80;;;;;;5033238;28;20863;-61
2023/07/07 12:19:31;;;;;;;23.27;22.33;;;23.20;60.00;;;;;;5033211;28;20558;-61
2023/07/07 12:22:00;;;;;;;23.47;22.67;;;23.20;60.80;;;;;;5033136;28;20999;-55
2023/07/07 12:24:31;;;;;;;23.83;22.93;;;23.20;60.80;;;;;;5033100;28;20531;-57
2023/07/07 12:27:08;;;;;;;24.23;23.33;;;23.20;59.90;;;;;;5032789;28;20563;-55
2023/07/07 12:29:39;;;;;;;23.23;22.43;;;23.30;58.80;;;;;;5032951;28;20465;-57
2023/07/07 12:32:07;;;;;;;24.10;23.20;;;23.30;58.90;;;;;;5032988;28;20481;-57
2023/07/07 12:34:39;;;;;;;23.63;22.73;;;23.30;59.40;;;;;;5033004;28;20488;-54
2023/07/07 12:37:12;;;;;;;22.53;21.63;;;23.30;59.30;;;;;;5032925;28;20445;-59
2023/07/07 12:39:51;;;;;;;23.43;22.53;;;23.30;59.30;;;;;;5032918;28;20472;-58
2023/07/07 12:42:18;;;;;;;22.30;21.50;;;23.30;59.20;;;;;;5033026;28;20477;-57
2023/07/07 12:44:46;;;;;;;23.83;23.03;;;23.30;59.30;;;;;;5032786;28;20528;-55
2023/07/07 12:47:25;;;;;;;23.50;22.60;;;23.30;59.30;;;;;;5032325;28;20491;-61